createdAt,value
2018-08-27T00:01:19.814Z,2.63
2018-08-27T00:03:47.974Z,2.07
2018-08-27T00:06:16.031Z,3.27
2018-08-27T00:08:44.114Z,2.13
2018-08-27T00:11:12.229Z,3.50
2018-08-27T00:13:40.247Z,3.37
2018-08-27T00:16:08.311Z,2.10
2018-08-27T00:18:36.416Z,4.27
2018-08-27T00:21:04.713Z,2.73
2018-08-27T00:23:32.928Z,1.80
2018-08-27T00:26:01.001Z,2.47
2018-08-27T00:28:28.980Z,2.23
2018-08-27T00:30:57.090Z,2.73
2018-08-27T00:33:25.210Z,2.43
2018-08-27T00:35:53.281Z,4.67
2018-08-27T00:38:21.301Z,2.13
2018-08-27T00:40:49.308Z,3.43
2018-08-27T00:43:17.400Z,1.40
2018-08-27T00:45:45.421Z,3.43
2018-08-27T00:48:13.529Z,2.53
2018-08-27T00:50:41.572Z,1.70
2018-08-27T00:53:09.614Z,2.37
2018-08-27T00:55:37.741Z,3.10
2018-08-27T00:58:05.742Z,2.73
2018-08-27T01:00:33.825Z,4.30
2018-08-27T01:03:01.876Z,6.23
2018-08-27T01:05:29.891Z,4.20
2018-08-27T01:07:57.892Z,4.63
2018-08-27T01:10:25.940Z,2.27
2018-08-27T01:12:54.039Z,3.87
2018-08-27T01:15:22.052Z,3.33
2018-08-27T01:17:50.185Z,4.37
2018-08-27T01:20:18.218Z,2.90
2018-08-27T01:22:46.243Z,3.03
2018-08-27T01:25:14.381Z,2.43
2018-08-27T01:27:42.418Z,3.07
2018-08-27T01:30:10.428Z,2.43
2018-08-27T01:32:38.479Z,2.87
2018-08-27T01:35:06.525Z,4.33
2018-08-27T01:37:34.571Z,5.73
2018-08-27T01:40:02.636Z,2.40
2018-08-27T01:42:30.730Z,5.27
2018-08-27T01:44:58.839Z,3.87
2018-08-27T01:47:26.828Z,3.00
2018-08-27T01:49:54.874Z,4.50
2018-08-27T01:52:22.953Z,4.53
2018-08-27T01:54:50.949Z,3.70
2018-08-27T01:57:18.984Z,3.20
2018-08-27T01:59:47.022Z,4.53
2018-08-27T02:02:15.063Z,2.63
2018-08-27T02:04:43.091Z,5.27
2018-08-27T02:07:11.164Z,3.83
2018-08-27T02:09:39.209Z,4.73
2018-08-27T02:12:07.233Z,3.23
2018-08-27T02:14:35.377Z,4.00
2018-08-27T02:17:03.392Z,4.40
2018-08-27T02:19:31.488Z,2.60
2018-08-27T02:21:59.504Z,5.03
2018-08-27T02:24:27.541Z,6.27
2018-08-27T02:26:56.451Z,2.83
2018-08-27T02:29:24.550Z,4.83
2018-08-27T02:31:52.703Z,5.30
2018-08-27T02:34:20.790Z,4.40
2018-08-27T02:36:48.869Z,3.70
2018-08-27T02:39:16.972Z,3.07
2018-08-27T02:41:45.095Z,4.13
2018-08-27T02:44:13.213Z,3.63
2018-08-27T02:46:41.238Z,3.53
2018-08-27T02:49:09.275Z,2.57
2018-08-27T02:51:37.420Z,6.33
2018-08-27T02:54:05.553Z,4.03
2018-08-27T02:56:33.568Z,4.53
2018-08-27T02:59:01.630Z,4.70
2018-08-27T03:01:29.756Z,4.43
2018-08-27T03:03:57.910Z,4.00
2018-08-27T03:06:25.937Z,4.90
2018-08-27T03:08:53.969Z,4.27
2018-08-27T03:11:22.124Z,4.70
2018-08-27T03:13:50.194Z,2.90
2018-08-27T03:16:18.291Z,6.00
2018-08-27T03:18:46.327Z,3.80
2018-08-27T03:21:14.399Z,3.00
2018-08-27T03:23:42.392Z,5.07
2018-08-27T03:26:10.537Z,4.17
2018-08-27T03:28:38.652Z,4.43
2018-08-27T03:31:06.713Z,4.47
2018-08-27T03:33:34.747Z,4.90
2018-08-27T03:36:02.793Z,5.60
2018-08-27T03:38:30.841Z,5.03
2018-08-27T03:40:58.888Z,3.87
2018-08-27T03:43:26.892Z,5.10
2018-08-27T03:45:54.928Z,7.93
2018-08-27T03:48:22.995Z,6.90
2018-08-27T03:50:51.035Z,3.70
2018-08-27T03:53:19.017Z,5.43
2018-08-27T03:55:47.034Z,3.33
2018-08-27T03:58:15.058Z,8.10
2018-08-27T04:00:43.082Z,5.63
2018-08-27T04:03:11.128Z,5.87
2018-08-27T04:05:39.156Z,5.30
2018-08-27T04:08:07.244Z,4.17
2018-08-27T04:10:35.305Z,4.60
2018-08-27T04:13:03.521Z,6.13
2018-08-27T04:15:31.659Z,4.67
2018-08-27T04:17:59.666Z,4.03
2018-08-27T04:20:27.680Z,6.67
2018-08-27T04:22:55.708Z,5.63
2018-08-27T04:25:25.012Z,5.63
2018-08-27T04:27:53.127Z,7.07
2018-08-27T04:30:21.321Z,3.40
2018-08-27T04:32:49.803Z,5.87
2018-08-27T04:35:17.998Z,4.53
2018-08-27T04:37:46.221Z,4.90
2018-08-27T04:40:14.263Z,7.07
2018-08-27T04:42:42.371Z,6.50
2018-08-27T04:45:17.696Z,4.87
2018-08-27T04:47:46.142Z,5.03
2018-08-27T04:50:14.244Z,4.93
2018-08-27T04:52:42.232Z,5.10
2018-08-27T04:55:10.493Z,4.83
2018-08-27T04:57:38.556Z,3.63
2018-08-27T05:00:06.624Z,5.57
2018-08-27T05:02:34.649Z,6.17
2018-08-27T05:05:03.447Z,5.97
2018-08-27T05:07:31.638Z,5.93
2018-08-27T05:09:59.736Z,7.70
2018-08-27T05:12:27.832Z,5.57
2018-08-27T05:14:55.971Z,4.63
2018-08-27T05:17:24.185Z,5.30
2018-08-27T05:19:52.248Z,6.07
2018-08-27T05:22:20.250Z,5.93
2018-08-27T05:24:48.371Z,3.90
2018-08-27T05:27:18.329Z,4.00
2018-08-27T05:29:46.382Z,6.93
2018-08-27T05:32:14.421Z,7.37
2018-08-27T05:34:42.492Z,5.67
2018-08-27T05:37:12.462Z,4.63
2018-08-27T05:39:40.485Z,5.40
2018-08-27T05:42:08.549Z,4.50
2018-08-27T05:44:36.732Z,4.33
2018-08-27T05:47:04.740Z,10.20
2018-08-27T05:49:32.856Z,6.93
2018-08-27T05:52:01.046Z,5.13
2018-08-27T05:54:30.789Z,4.07
2018-08-27T05:56:58.871Z,46.53
2018-08-27T05:59:26.988Z,45.67
2018-08-27T06:01:55.105Z,45.40
2018-08-27T06:04:23.093Z,37.57
2018-08-27T06:06:51.153Z,26.03
2018-08-27T06:09:19.303Z,13.60
2018-08-27T06:11:47.268Z,17.43
2018-08-27T06:14:15.348Z,14.10
2018-08-27T06:16:43.448Z,9.13
2018-08-27T06:19:11.521Z,13.07
2018-08-27T06:21:39.538Z,5.83
2018-08-27T06:24:07.614Z,5.67
2018-08-27T06:26:35.693Z,5.17
2018-08-27T06:29:03.862Z,5.73
2018-08-27T06:31:32.192Z,4.97
2018-08-27T06:34:00.213Z,4.73
2018-08-27T06:36:28.244Z,4.93
2018-08-27T06:38:56.281Z,4.00
2018-08-27T06:41:24.372Z,4.27
2018-08-27T06:43:52.393Z,5.10
2018-08-27T06:46:21.739Z,3.47
2018-08-27T06:48:49.802Z,3.40
2018-08-27T06:51:17.829Z,3.00
2018-08-27T06:53:45.947Z,5.30
2018-08-27T06:56:14.045Z,4.13
2018-08-27T06:58:42.091Z,2.57
2018-08-27T07:01:10.165Z,4.27
2018-08-27T07:03:38.169Z,3.30
2018-08-27T07:06:06.217Z,3.00
2018-08-27T07:08:34.368Z,3.00
2018-08-27T07:11:02.541Z,3.27
2018-08-27T07:13:31.535Z,5.03
2018-08-27T07:16:00.225Z,4.70
2018-08-27T07:18:28.613Z,2.80
2018-08-27T07:20:56.649Z,4.13
2018-08-27T07:23:24.724Z,4.03
2018-08-27T07:25:52.812Z,2.23
2018-08-27T07:28:20.848Z,3.07
2018-08-27T07:30:48.919Z,3.07
2018-08-27T07:33:17.009Z,2.23
2018-08-27T07:35:45.061Z,2.13
2018-08-27T07:38:14.523Z,2.10
2018-08-27T07:40:42.751Z,3.20
2018-08-27T07:43:10.809Z,3.53
2018-08-27T07:45:39.117Z,3.53
2018-08-27T07:48:07.273Z,3.17
2018-08-27T07:50:35.282Z,5.83
2018-08-27T07:53:03.334Z,1.87
2018-08-27T07:55:31.501Z,3.30
2018-08-27T07:57:59.718Z,5.90
2018-08-27T08:00:27.818Z,4.00
2018-08-27T08:02:55.941Z,2.57
2018-08-27T08:05:23.993Z,1.80
2018-08-27T08:07:52.020Z,3.00
2018-08-27T08:10:20.125Z,2.67
2018-08-27T08:12:48.549Z,2.03
2018-08-27T08:15:16.670Z,2.43
2018-08-27T08:17:44.793Z,2.77
2018-08-27T08:20:12.853Z,2.27
2018-08-27T08:22:41.007Z,2.30
2018-08-27T08:25:09.009Z,2.47
2018-08-27T08:27:37.011Z,3.20
2018-08-27T08:30:05.097Z,2.83
2018-08-27T08:32:33.175Z,3.77
2018-08-27T08:35:01.977Z,3.23
2018-08-27T08:37:32.215Z,4.77
2018-08-27T08:40:00.478Z,2.87
2018-08-27T08:42:28.515Z,3.27
2018-08-27T08:44:56.652Z,4.00
2018-08-27T08:47:24.878Z,2.83
2018-08-27T08:49:52.945Z,3.47
2018-08-27T08:52:21.010Z,3.73
2018-08-27T08:54:49.041Z,2.07
2018-08-27T08:57:17.074Z,3.27
2018-08-27T08:59:45.145Z,3.13
2018-08-27T09:02:13.188Z,6.17
2018-08-27T09:04:41.209Z,3.30
2018-08-27T09:07:09.293Z,3.63
2018-08-27T09:09:37.344Z,3.33
2018-08-27T09:12:05.803Z,3.60
2018-08-27T09:14:33.818Z,4.47
2018-08-27T09:17:01.863Z,4.67
2018-08-27T09:19:29.895Z,4.07
2018-08-27T09:21:57.954Z,5.43
2018-08-27T09:24:26.030Z,6.80
2018-08-27T09:26:54.344Z,3.03
2018-08-27T09:29:22.362Z,3.83
2018-08-27T09:31:50.384Z,4.70
2018-08-27T09:34:18.428Z,4.73
2018-08-27T09:36:46.443Z,6.47
2018-08-27T09:39:14.446Z,4.60
2018-08-27T09:41:42.704Z,6.57
2018-08-27T09:44:10.688Z,4.57
2018-08-27T09:46:46.757Z,7.67
2018-08-27T09:49:14.852Z,5.47
2018-08-27T09:51:42.971Z,5.83
2018-08-27T09:54:11.065Z,4.40
2018-08-27T09:56:39.218Z,5.03
2018-08-27T09:59:07.480Z,9.33
2018-08-27T10:01:35.499Z,5.73
2018-08-27T10:04:03.583Z,6.63
2018-08-27T10:06:31.758Z,6.57
2018-08-27T10:08:59.857Z,7.97
2018-08-27T10:11:27.838Z,8.33
2018-08-27T10:13:55.881Z,11.97
2018-08-27T10:16:24.068Z,11.37
2018-08-27T10:18:52.105Z,10.23
2018-08-27T10:21:20.145Z,7.37
2018-08-27T10:23:48.191Z,10.80
2018-08-27T10:26:16.313Z,9.53
2018-08-27T10:28:44.362Z,7.53
2018-08-27T10:31:12.412Z,7.60
2018-08-27T10:33:40.643Z,7.40
2018-08-27T10:36:08.937Z,7.80
2018-08-27T10:38:37.051Z,9.00
2018-08-27T10:41:05.405Z,8.53
2018-08-27T10:43:33.509Z,9.03
2018-08-27T10:46:01.566Z,7.30
2018-08-27T10:48:29.609Z,7.53
2018-08-27T10:50:57.825Z,8.20
2018-08-27T10:53:25.868Z,7.97
2018-08-27T10:55:53.957Z,10.47
2018-08-27T10:58:22.061Z,7.27
2018-08-27T11:00:50.127Z,4.80
2018-08-27T11:03:18.158Z,6.67
2018-08-27T11:05:46.882Z,7.60
2018-08-27T11:08:15.018Z,5.80
2018-08-27T11:10:43.097Z,7.47
2018-08-27T11:13:11.129Z,7.57
2018-08-27T11:15:39.334Z,7.87
2018-08-27T11:18:08.746Z,6.83
2018-08-27T11:20:37.021Z,6.07
2018-08-27T11:23:05.810Z,6.10
2018-08-27T11:25:34.334Z,5.77
2018-08-27T11:28:02.556Z,4.90
2018-08-27T11:30:30.703Z,9.40
2018-08-27T11:32:58.920Z,6.20
2018-08-27T11:35:27.091Z,8.47
2018-08-27T11:37:55.135Z,6.10
2018-08-27T11:40:23.235Z,7.40
2018-08-27T11:42:51.321Z,5.67
2018-08-27T11:45:19.366Z,7.47
2018-08-27T11:47:47.422Z,6.03
2018-08-27T11:50:15.496Z,9.67
2018-08-27T11:52:43.604Z,10.20
2018-08-27T11:55:12.522Z,6.37
2018-08-27T11:57:40.732Z,6.90
2018-08-27T12:00:10.379Z,9.43
2018-08-27T12:02:38.709Z,7.17
2018-08-27T12:05:06.810Z,6.03
2018-08-27T12:07:34.944Z,7.83
2018-08-27T12:10:03.061Z,8.03
2018-08-27T12:12:31.121Z,9.83
2018-08-27T12:14:59.662Z,6.27
2018-08-27T12:17:27.746Z,6.03
2018-08-27T12:19:55.889Z,8.87
2018-08-27T12:22:24.019Z,8.50
2018-08-27T12:24:53.281Z,11.17
2018-08-27T12:27:21.384Z,8.63
2018-08-27T12:29:49.674Z,8.37
2018-08-27T12:32:17.833Z,8.80
2018-08-27T12:34:45.925Z,10.27
2018-08-27T12:37:13.977Z,7.17
2018-08-27T12:39:42.445Z,10.63
2018-08-27T12:42:10.505Z,10.50
2018-08-27T12:44:38.684Z,8.80
2018-08-27T12:47:06.704Z,9.73
2018-08-27T12:49:34.768Z,7.40
2018-08-27T12:52:02.809Z,11.77
2018-08-27T12:54:30.876Z,7.57
2018-08-27T12:56:59.867Z,7.47
2018-08-27T12:59:27.928Z,11.10
2018-08-27T13:01:55.961Z,6.73
2018-08-27T13:04:24.063Z,6.23
2018-08-27T13:06:52.108Z,8.63
2018-08-27T13:09:20.174Z,11.47
2018-08-27T13:11:48.972Z,8.67
2018-08-27T13:14:16.969Z,9.83
2018-08-27T13:16:45.233Z,11.97
2018-08-27T13:19:13.356Z,12.13
2018-08-27T13:21:41.485Z,11.13
2018-08-27T13:24:09.524Z,11.30
2018-08-27T13:26:37.584Z,9.93
2018-08-27T13:29:05.632Z,8.93
2018-08-27T13:31:33.966Z,6.97
2018-08-27T13:34:01.984Z,8.63
2018-08-27T13:36:30.103Z,9.87
2018-08-27T13:38:58.153Z,10.77
2018-08-27T13:41:26.246Z,7.93
2018-08-27T13:43:54.290Z,8.80
2018-08-27T13:46:22.383Z,9.77
2018-08-27T13:48:50.629Z,7.37
2018-08-27T13:51:18.808Z,9.30
2018-08-27T13:53:46.833Z,11.80
2018-08-27T13:56:14.919Z,11.60
2018-08-27T13:58:43.288Z,8.73
2018-08-27T14:01:11.385Z,11.50
2018-08-27T14:03:39.420Z,11.47
2018-08-27T14:06:07.531Z,8.27
2018-08-27T14:08:35.736Z,9.60
2018-08-27T14:11:03.831Z,7.03
2018-08-27T14:13:32.074Z,10.90
2018-08-27T14:16:00.090Z,9.13
2018-08-27T14:18:28.181Z,8.97
2018-08-27T14:20:56.336Z,8.53
2018-08-27T14:23:24.406Z,9.47
2018-08-27T14:25:52.591Z,10.00
2018-08-27T14:28:20.624Z,10.33
2018-08-27T14:30:49.094Z,9.97
2018-08-27T14:33:17.245Z,11.70
2018-08-27T14:35:45.467Z,8.10
2018-08-27T14:38:13.446Z,12.60
2018-08-27T14:40:41.577Z,10.40
2018-08-27T14:43:09.738Z,11.10
2018-08-27T14:45:37.830Z,9.57
2018-08-27T14:48:06.016Z,10.47
2018-08-27T14:50:34.000Z,12.07
2018-08-27T14:53:02.050Z,9.20
2018-08-27T14:55:30.203Z,12.50
2018-08-27T14:57:58.404Z,13.40
2018-08-27T15:00:26.557Z,8.67
2018-08-27T15:02:54.607Z,10.60
2018-08-27T15:05:22.715Z,8.43
2018-08-27T15:07:51.086Z,13.77
2018-08-27T15:10:19.215Z,11.17
2018-08-27T15:12:47.368Z,11.43
2018-08-27T15:15:15.412Z,13.43
2018-08-27T15:17:43.485Z,9.17
2018-08-27T15:20:11.514Z,12.00
2018-08-27T15:22:39.693Z,10.57
2018-08-27T15:25:07.745Z,14.33
2018-08-27T15:27:35.984Z,8.63
2018-08-27T15:30:04.453Z,11.03
2018-08-27T15:32:32.638Z,10.40
2018-08-27T15:35:00.674Z,11.67
2018-08-27T15:37:29.004Z,11.30
2018-08-27T15:39:56.910Z,11.57
2018-08-27T15:42:24.979Z,7.53
2018-08-27T15:44:53.163Z,12.77
2018-08-27T15:47:21.438Z,12.53
2018-08-27T15:49:49.563Z,12.47
2018-08-27T15:52:18.317Z,11.70
2018-08-27T15:54:46.358Z,12.77
2018-08-27T15:57:14.586Z,17.27
2018-08-27T15:59:43.050Z,11.90
2018-08-27T16:02:11.175Z,10.90
2018-08-27T16:04:39.482Z,11.43
2018-08-27T16:07:07.827Z,15.20
2018-08-27T16:09:36.206Z,16.63
2018-08-27T16:12:04.474Z,13.20
2018-08-27T16:14:32.485Z,12.57
2018-08-27T16:17:00.544Z,13.07
2018-08-27T16:19:28.797Z,11.23
2018-08-27T16:21:56.848Z,12.33
2018-08-27T16:24:24.889Z,9.33
2018-08-27T16:26:53.009Z,10.87
2018-08-27T16:29:21.109Z,14.40
2018-08-27T16:31:49.162Z,11.67
2018-08-27T16:34:17.325Z,15.17
2018-08-27T16:36:45.476Z,15.07
2018-08-27T16:39:14.086Z,18.47
2018-08-27T16:41:42.417Z,14.23
2018-08-27T16:44:10.764Z,15.70
2018-08-27T16:46:39.755Z,16.73
2018-08-27T16:49:08.202Z,14.93
2018-08-27T16:51:36.264Z,15.60
2018-08-27T16:54:04.353Z,12.43
2018-08-27T16:56:32.560Z,14.23
2018-08-27T17:01:35.156Z,14.07
2018-08-27T17:04:03.417Z,13.17
2018-08-27T17:06:31.578Z,18.73
2018-08-27T17:08:59.702Z,17.23
2018-08-27T17:11:27.832Z,14.60
2018-08-27T17:13:55.910Z,13.40
2018-08-27T17:16:24.004Z,15.97
2018-08-27T17:18:52.128Z,12.07
2018-08-27T17:21:20.247Z,15.23
2018-08-27T17:23:48.455Z,19.47
2018-08-27T17:26:16.773Z,21.17
2018-08-27T17:28:44.980Z,15.57
2018-08-27T17:31:13.345Z,19.90
2018-08-27T17:33:41.462Z,15.97
2018-08-27T17:36:09.536Z,16.77
2018-08-27T17:38:37.722Z,16.87
2018-08-27T17:41:06.522Z,14.13
2018-08-27T17:43:34.911Z,17.20
2018-08-27T17:48:44.622Z,18.10
2018-08-27T17:51:12.794Z,15.47
2018-08-27T17:53:40.853Z,18.57
2018-08-27T17:56:09.354Z,13.00
2018-08-27T17:58:37.696Z,14.83
2018-08-27T18:01:05.950Z,15.87
2018-08-27T18:03:34.103Z,14.47
2018-08-27T18:06:02.233Z,15.83
2018-08-27T18:08:32.041Z,15.93
2018-08-27T18:11:00.473Z,15.77
2018-08-27T18:13:28.571Z,20.83
2018-08-27T18:15:56.763Z,15.40
2018-08-27T18:18:35.713Z,18.57
2018-08-27T18:21:04.300Z,18.17
2018-08-27T18:23:33.779Z,17.13
2018-08-27T18:26:01.846Z,25.67
2018-08-27T18:28:29.915Z,15.07
2018-08-27T18:30:59.386Z,16.47
2018-08-27T18:33:27.531Z,13.93
2018-08-27T18:35:56.235Z,14.23
2018-08-27T18:38:24.611Z,16.00
2018-08-27T18:40:52.746Z,16.97
2018-08-27T18:43:20.890Z,20.60
2018-08-27T18:45:49.016Z,17.43
2018-08-27T18:48:17.399Z,19.80
2018-08-27T18:50:49.177Z,17.63
2018-08-27T18:53:17.569Z,17.20
2018-08-27T18:55:45.937Z,15.57
2018-08-27T18:58:14.288Z,15.43
2018-08-27T19:00:42.714Z,14.40
2018-08-27T19:03:11.249Z,20.37
2018-08-27T19:05:39.624Z,17.70
2018-08-27T19:08:08.206Z,15.27
2018-08-27T19:10:36.585Z,14.30
2018-08-27T19:13:05.270Z,15.63
2018-08-27T19:15:33.749Z,17.03
2018-08-27T19:18:02.133Z,16.13
2018-08-27T19:20:30.611Z,16.07
2018-08-27T19:23:05.757Z,12.77
2018-08-27T19:25:34.226Z,14.53
2018-08-27T19:28:02.703Z,13.83
2018-08-27T19:30:31.202Z,15.80
2018-08-27T19:32:59.769Z,13.77
2018-08-27T19:35:28.335Z,14.67
2018-08-27T19:37:56.723Z,17.77
2018-08-27T19:40:25.306Z,14.57
2018-08-27T19:42:54.056Z,16.17
2018-08-27T19:45:22.896Z,18.30
2018-08-27T19:47:51.164Z,12.47
2018-08-27T19:50:19.304Z,12.07
2018-08-27T19:52:47.483Z,18.20
2018-08-27T19:55:15.567Z,18.83
2018-08-27T19:57:43.663Z,15.87
2018-08-27T20:00:11.721Z,16.50
2018-08-27T20:02:39.848Z,15.67
2018-08-27T20:05:07.898Z,12.43
2018-08-27T20:07:36.023Z,16.70
2018-08-27T20:10:04.242Z,12.77
2018-08-27T20:12:32.370Z,12.60
2018-08-27T20:15:00.762Z,10.43
2018-08-27T20:17:28.979Z,20.07
2018-08-27T20:19:57.033Z,10.90
2018-08-27T20:22:25.108Z,12.30
2018-08-27T20:24:53.251Z,13.90
2018-08-27T20:27:21.553Z,16.67
2018-08-27T20:29:49.655Z,11.83
2018-08-27T20:32:17.740Z,12.23
2018-08-27T20:34:45.981Z,12.17
2018-08-27T20:37:14.486Z,11.67
2018-08-27T20:39:42.655Z,15.43
2018-08-27T20:42:10.677Z,10.23
2018-08-27T20:44:38.939Z,12.57
2018-08-27T20:47:07.154Z,14.17
2018-08-27T20:49:35.758Z,11.90
2018-08-27T20:52:04.132Z,10.60
2018-08-27T20:54:32.568Z,12.10
2018-08-27T20:57:04.940Z,10.63
2018-08-27T20:59:33.110Z,11.50
2018-08-27T21:02:01.454Z,12.33
2018-08-27T21:04:29.665Z,10.17
2018-08-27T21:06:58.067Z,10.53
2018-08-27T21:09:26.121Z,9.33
2018-08-27T21:11:54.462Z,10.33
2018-08-27T21:15:00.617Z,12.00
2018-08-27T21:17:28.780Z,11.73
2018-08-27T21:19:57.094Z,10.83
2018-08-27T21:22:25.423Z,9.33
2018-08-27T21:24:53.556Z,9.23
2018-08-27T21:27:21.644Z,9.80
2018-08-27T21:29:49.967Z,7.47
2018-08-27T21:32:18.203Z,10.33
2018-08-27T21:34:46.238Z,8.60
2018-08-27T21:37:14.556Z,8.93
2018-08-27T21:39:42.601Z,7.63
2018-08-27T21:42:10.854Z,12.03
2018-08-27T21:44:38.949Z,13.67
2018-08-27T21:47:07.681Z,10.17
2018-08-27T21:49:35.733Z,12.77
2018-08-27T21:52:04.080Z,7.30
2018-08-27T21:54:32.587Z,7.23
2018-08-27T21:57:01.466Z,8.20
2018-08-27T21:59:29.550Z,10.73
2018-08-27T22:01:57.637Z,8.57
2018-08-27T22:04:25.687Z,6.47
2018-08-27T22:06:53.765Z,7.70
2018-08-27T22:09:21.868Z,7.33
2018-08-27T22:11:50.005Z,7.63
2018-08-27T22:14:18.115Z,5.83
2018-08-27T22:16:46.330Z,8.27
2018-08-27T22:19:14.533Z,8.10
2018-08-27T22:21:42.617Z,8.20
2018-08-27T22:24:10.821Z,6.07
2018-08-27T22:26:38.892Z,8.30
2018-08-27T22:29:06.941Z,9.30
2018-08-27T22:31:34.988Z,5.53
2018-08-27T22:34:03.060Z,9.87
2018-08-27T22:36:31.097Z,9.70
2018-08-27T22:38:59.432Z,12.33
2018-08-27T22:41:27.447Z,11.00
2018-08-27T22:43:55.564Z,12.47
2018-08-27T22:46:23.593Z,9.03
2018-08-27T22:48:51.652Z,8.90
2018-08-27T22:51:19.665Z,8.73
2018-08-27T22:53:47.741Z,7.63
2018-08-27T22:56:15.821Z,7.97
2018-08-27T22:58:44.002Z,8.77
2018-08-27T23:01:12.055Z,9.37
2018-08-27T23:03:40.124Z,10.57
2018-08-27T23:06:08.193Z,11.27
2018-08-27T23:08:37.173Z,9.90
2018-08-27T23:11:05.497Z,9.73
2018-08-27T23:13:33.757Z,6.47
2018-08-27T23:16:01.820Z,8.60
2018-08-27T23:18:29.960Z,11.50
2018-08-27T23:20:58.054Z,8.80
2018-08-27T23:23:26.096Z,11.50
2018-08-27T23:25:54.105Z,7.87
2018-08-27T23:28:22.288Z,10.17
2018-08-27T23:30:50.365Z,10.60
2018-08-27T23:33:18.390Z,9.57
2018-08-27T23:35:46.601Z,11.73
2018-08-27T23:38:14.677Z,10.43
2018-08-27T23:40:42.716Z,10.83
2018-08-27T23:43:10.743Z,10.93
2018-08-27T23:45:38.794Z,10.50
2018-08-27T23:48:06.857Z,8.97
2018-08-27T23:50:34.917Z,12.13
2018-08-27T23:53:03.040Z,11.07
2018-08-27T23:55:31.382Z,12.13
2018-08-27T23:57:59.441Z,10.30
